Badger Spring Valley, Nevada Weather observations

Data are for 10 minute period ending at time listed.
 Day   Time   Solar   Ave.   Ave.  Ave.  Vector  Max.   Baro.   Total    
  of    of     Rad.   Air    Rel.  Wind   Wind   Wind  Press.  Precip.   
Year   Day            Temp.  Hum.  Speed  Dir.   Gust                    
2015   (PST)  Kw/m2    F      %     mph   deg.    mph    mb.     in.     
-------------------------------------------------------------------------
 210    3:20   0.00   70.4    18   14.9   349    21.0   834.6    0.00 
 210    3:30   0.00   70.0    18   15.0   346    19.7   834.7    0.00 
 210    3:40   0.00   70.1    18   15.8   347    21.3   834.7    0.00 
 210    3:50   0.00   69.9    18   16.4   346    22.6   834.7    0.00 
 210    4:00   0.00   69.9    18   16.6   343    22.3   834.8    0.00 
 210    4:10   0.00   69.7    18   16.1   344    21.3   834.9    0.00 
 210    4:20   0.00   69.5    18   16.4   343    22.6   835.0    0.00 
 210    4:30   0.00   69.5    18   15.3   347    22.9   835.1    0.00 
 210    4:40   0.00   69.6    18   17.0   341    23.1   835.1    0.00 
 210    4:50   0.01   69.6    18   16.3   346    24.0   835.2    0.00 
 210    5:00   0.01   69.4    18   15.1   343    22.1   835.3    0.00 
 210    5:10   0.04   69.6    18   15.6   345    22.4   835.4    0.00 
 210    5:20   0.07   70.1    18   15.4   342    21.4   835.4    0.00 
 210    5:30   0.10   70.4    18   17.3   346    22.8   835.5    0.00 
 210    5:40   0.13   70.7    17   18.3   345    25.9   835.6    0.00 
 210    5:50   0.16   71.1    17   15.7   344    22.6   835.7    0.00 
 210    6:00   0.20   71.6    16   16.8   345    24.4   835.7    0.00 
 210    6:10   0.23   72.1    16   17.2   346    23.5   835.8    0.00 
 210    6:20   0.27   72.5    16   18.6   347    24.0   835.9    0.00 
 210    6:30   0.31   72.9    16   17.1   350    24.3   836.0    0.00 
 210    6:40   0.34   73.3    15   17.1   350    23.6   836.1    0.00 
 210    6:50   0.38   73.7    15   17.2   353    23.8   836.2    0.00 
 210    7:00   0.42   73.5    15   17.6   354    22.9   836.3    0.00 
 210    7:10   0.46   73.9    15   16.8   354    23.7   836.3    0.00 
 210    7:20   0.50   74.4    15   17.5     1    21.8   836.3    0.00 
 210    7:30   0.54   74.6    15   16.8   359    21.9   836.4    0.00 
 210    7:40   0.58   74.8    15   17.0     3    22.7   836.5    0.00 
 210    7:50   0.61   75.0    15   17.1     3    21.1   836.5    0.00 
 210    8:00   0.65   75.8    14   16.0   359    20.6   836.6    0.00 
 210    8:10   0.69   76.2    14   15.4     2    20.2   836.7    0.00 
 210    8:20   0.72   77.2    14   14.1   358    18.3   836.7    0.00 
 210    8:30   0.75   77.7    14   13.1     4    17.3   836.7    0.00 
 210    8:40   0.78   78.5    14   11.8     3    15.6   836.7    0.00 
 210    8:50   0.81   79.0    13   11.7   359    15.8   836.7    0.00 
 210    9:00   0.84   79.9    13   10.6   356    15.2   836.6    0.00 
 210    9:10   0.87   80.4    13   10.4   358    14.5   836.6    0.00 
 210    9:20   0.90   81.0    13    8.7     2    14.5   836.6    0.00 
 210    9:30   0.93   81.4    12    7.0   358    10.9   836.6    0.00 
 210    9:40   0.95   81.9    12    6.2    20    11.6   836.6    0.00 
 210    9:50   0.97   82.3    12    5.7    21    11.7   836.7    0.00 
 210   10:00   0.99   82.3    12    5.8   345    11.1   836.7    0.00 
 210   10:10   1.01   83.5    12    7.2     8    15.7   836.7    0.00 
 210   10:20   1.03   83.4    12    6.0     8    12.0   836.6    0.00 
 210   10:30   1.05   83.8    12    5.6    40    12.1   836.5    0.00 
 210   10:40   1.06   83.8    12    4.7   339    10.2   836.4    0.00 
 210   10:50   1.08   84.4    12    5.5    26    12.4   836.4    0.00 
 210   11:00   1.09   85.3    11    6.8   349    14.4   836.3    0.00 
 210   11:10   1.10   85.9    11    4.1   335     9.1   836.3    0.00 
 210   11:20   1.10   85.7    11    5.2    14    10.7   836.2    0.00 
 210   11:30   1.11   86.4    11    8.1    75    13.4   836.1    0.00 
 210   11:40   1.11   86.9    11    7.5    60    15.1   836.0    0.00 
 210   11:50   1.11   87.1    11    8.9    99    15.9   835.9    0.00 
 210   12:00   1.11   86.5    11    7.0    93    13.4   835.9    0.00 
 210   12:10   1.11   87.3    11    6.9    65    12.2   835.9    0.00 
 210   12:20   1.10   88.2    10    8.1    97    14.1   835.8    0.00 
 210   12:30   1.04   88.4    10    6.0    41    13.4   835.8    0.00 
 210   12:40   1.09   88.4    10    6.9    82    16.7   835.7    0.00 
 210   12:50   1.08   88.1    10    6.7    80    14.5   835.7    0.00 
 210   13:00   1.06   89.3    10    4.3   155     9.0   835.6    0.00 
 210   13:10   1.05   88.0    10    4.1   235     7.2   835.4    0.00 
 210   13:20   1.04   90.3    10    4.3   170    10.7   835.4    0.00 
 210   13:30   1.02   88.5    10    8.5    84    14.8   835.3    0.00 
 210   13:40   1.00   88.9    10    8.9    70    14.6   835.3    0.00 
 210   13:50   0.98   88.2    10    6.3    28    18.3   835.2    0.00 
 210   14:00   0.96   88.8    10    6.5   346    12.6   835.1    0.00 
 210   14:10   0.93   90.2    10    6.1    97    15.1   835.0    0.00 
 210   14:20   0.91   89.3    10    4.7    93    10.1   835.1    0.00 
 210   14:30   0.88   89.6    10    7.9    53    15.8   834.9    0.00 
 210   14:40   0.85   89.5    10    6.2    83    12.8   834.8    0.00 
 210   14:50   0.82   90.2    10    8.1   142    14.8   834.8    0.00 
 210   15:00   0.79   89.3    10    6.5   111    15.4   834.6    0.00 
 210   15:10   0.76   89.3    10    5.1   105    10.8   834.6    0.00 
 210   15:20   0.73   90.0    10    3.2    70     7.2   834.5    0.00 
 210   15:30   0.70   89.7    10    7.8   147    15.8   834.5    0.00 
 210   15:40   0.67   89.0    10    6.6   113    11.4   834.5    0.00 
 210   15:50   0.59   89.0    10    4.5   110    10.7   834.4    0.00 
 210   16:00   0.51   89.4    10    4.8    86     9.2   834.3    0.00 
 210   16:10   0.50   89.5    10    6.9   122    15.7   834.2    0.00 
 210   16:20   0.53   89.6    10    6.4   136    14.2   834.1    0.00 
 210   16:30   0.49   89.1    10    5.7   121     8.6   834.0    0.00 
 210   16:40   0.45   89.2    10    6.1   123    12.5   834.0    0.00 
 210   16:50   0.42   88.9    10    7.3   130    12.9   834.0    0.00 
 210   17:00   0.32   89.3    10    2.6    37     7.2   834.0    0.00 
 210   17:10   0.34   89.0    10    7.4   166    14.1   834.0    0.00 
 210   17:20   0.32   88.4    10    3.3   168     8.6   834.0    0.00 
 210   17:30   0.31   88.6    10    4.2   169     9.4   834.0    0.00 
 210   17:40   0.28   88.6    10    5.2   155     9.7   834.0    0.00 
 210   17:50   0.24   88.1    10    5.6   161     9.6   834.0    0.00 
 210   18:00   0.21   88.0    10    4.0   137     6.6   834.0    0.00 
 210   18:10   0.15   87.7    10    4.3   146     7.4   833.9    0.00 
 210   18:20   0.13   87.0    10    3.6   138     7.1   833.8    0.00 
 210   18:30   0.06   86.2    10    4.6   151     8.6   833.9    0.00 
 210   18:40   0.03   85.1    11    2.6   148     3.9   834.0    0.00 
 210   18:50   0.01   84.4    11    2.8   148     4.3   834.2    0.00 
 210   19:00   0.01   83.2    11    2.2   160     3.2   834.3    0.00 
 210   19:10   0.00   81.7    12    2.2   267     4.3   834.5    0.00 
 210   19:20   0.00   80.3    12    4.4   287     5.3   834.6    0.00 
 210   19:30   0.00   80.5    12    4.1   286     4.7   834.7    0.00 
 210   19:40   0.00   79.6    13    4.1   298     4.8   834.7    0.00 
 210   19:50   0.00   79.1    13    6.7   288    10.2   834.8    0.00 
 210   20:00   0.00   78.3    13    9.5   287    11.0   834.8    0.00 
 210   20:10   0.00   78.5    13    8.2   289     9.6   835.0    0.00 
 210   20:20   0.00   78.2    13    9.0   292    10.2   835.1    0.00 
 210   20:30   0.00   78.1    13    7.6   296     9.0   835.2    0.00 
 210   20:40   0.00   78.2    13   10.2   286    14.0   835.4    0.00 
 210   20:50   0.00   77.7    15    8.9   290    11.2   835.5    0.00 
 210   21:00   0.00   78.0    16    8.1   291    10.2   835.5    0.00 
 210   21:10   0.00   78.0    17    9.2   292    11.5   835.5    0.00 
 210   21:20   0.00   78.3    18    8.5   285    10.8   835.5    0.00 
 210   21:30   0.00   79.5    18    8.8   249    14.1   835.5    0.00 
 210   21:40   0.00   79.6    18    8.8   269    13.7   835.4    0.00 
 210   21:50   0.00   78.4    19    8.4   287    12.3   835.4    0.00 
 210   22:00   0.00   76.9    20   10.5   295    12.8   835.4    0.00 
 210   22:10   0.00   77.0    21   10.2   293    13.3   835.3    0.00 
 210   22:20   0.00   77.6    21   10.2   295    13.7   835.3    0.00 
 210   22:30   0.00   78.3    20    9.2   276    12.3   835.4    0.00 
 210   22:40   0.00   76.9    21   10.0   280    13.5   835.4    0.00 
 210   22:50   0.00   77.4    20    8.0   280    10.8   835.4    0.00 
 210   23:00   0.00   76.7    21    7.5   279    10.4   835.5    0.00 
 210   23:10   0.00   76.1    22    8.7   283    11.8   835.5    0.00 
 210   23:20   0.00   75.5    22    9.7   289    12.2   835.5    0.00 
 210   23:30   0.00   75.9    22    9.9   290    12.6   835.5    0.00 
 210   23:40   0.00   76.3    22    9.6   288    12.6   835.5    0.00 
 210   23:50   0.00   77.5    22    9.3   288    11.9   835.5    0.00 
 211    0:00   0.00   77.9    22    9.0   281    12.6   835.6    0.00 
 211    0:10   0.00   77.4    22    9.7   281    12.8   835.6    0.00 
 211    0:20   0.00   76.5    23    8.8   295    11.1   835.7    0.00 
 211    0:30   0.00   75.7    23    7.1   346    10.5   835.8    0.00 
 211    0:40   0.00   76.3    22    5.5   350     9.1   835.9    0.00 
 211    0:50   0.00   74.8    23    7.8   334     9.9   835.9    0.00 
 211    1:00   0.00   76.1    20    7.1   343    11.3   835.9    0.00 
 211    1:10   0.00   75.5    20    8.1   328    10.4   835.8    0.00 
 211    1:20   0.00   75.9    19    7.5   323     9.7   835.8    0.00 
 211    1:30   0.00   74.9    21    6.5   292     8.9   835.8    0.00 
 211    1:40   0.00   73.1    24    8.1   294     9.0   835.8    0.00 
 211    1:50   0.00   73.9    26    8.1   287    11.5   835.8    0.00 
 211    2:00   0.00   73.3    30   11.2   283    14.0   835.9    0.00 
 211    2:10   0.00   72.7    31    9.4   285    13.3   835.9    0.00 
 211    2:20   0.00   74.2    30    8.9   280    11.0   836.0    0.00 
 211    2:30   0.00   73.7    31    8.3   282    10.3   836.1    0.00 
 211    2:40   0.00   74.1    30    8.0   283     9.9   836.1    0.00 
 211    2:50   0.00   74.1    30    7.8   280     9.8   836.2    0.00 
 211    3:00   0.00   73.9    30    7.7   286     9.1   836.2    0.00 
 211    3:10   0.00   74.6    30    8.4   273    10.2   836.3    0.00 

Return to Badger Spring Valley graphs page.


Western Regional Climate Center,wrcc@dri.edu